createdAt,value
2022-12-01T00:01:01.086Z,102128.84
2022-12-01T00:03:30.906Z,102129.72
2022-12-01T00:06:02.614Z,102120.19
2022-12-01T00:08:30.231Z,102121.09
2022-12-01T00:11:08.809Z,102118.44
2022-12-01T00:13:36.950Z,102128.84
2022-12-01T00:16:15.201Z,102120.19
2022-12-01T00:18:42.583Z,102128.84
2022-12-01T00:21:17.523Z,102126.25
2022-12-01T00:23:47.426Z,102121.03
2022-12-01T00:26:15.952Z,102117.59
2022-12-01T00:28:43.398Z,102114.97
2022-12-01T00:31:12.138Z,102110.63
2022-12-01T00:33:39.804Z,102118.41
2022-12-01T00:36:07.322Z,102114.09
2022-12-01T00:38:34.513Z,102118.44
2022-12-01T00:41:01.788Z,102121.91
2022-12-01T00:43:28.865Z,102121.03
2022-12-01T00:46:22.498Z,102121.03
2022-12-01T00:48:49.629Z,102120.19
2022-12-01T00:51:16.656Z,102123.66
2022-12-01T00:53:43.717Z,102123.66
2022-12-01T00:56:10.828Z,102124.53
2022-12-01T00:58:37.887Z,102112.41
2022-12-01T01:01:05.159Z,102118.50
2022-12-01T01:03:32.990Z,102120.22
2022-12-01T01:06:08.975Z,102111.53
2022-12-01T01:08:36.251Z,102116.72
2022-12-01T01:11:04.193Z,102122.78
2022-12-01T01:13:32.095Z,102123.63
2022-12-01T01:16:08.644Z,102128.84
2022-12-01T01:18:35.647Z,102119.38
2022-12-01T01:21:06.346Z,102125.44
2022-12-01T01:23:33.838Z,102120.22
2022-12-01T01:26:06.355Z,102113.31
2022-12-01T01:28:33.407Z,102117.66
2022-12-01T01:31:04.483Z,102110.72
2022-12-01T01:33:31.554Z,102109.00
2022-12-01T01:36:02.479Z,102107.28
2022-12-01T01:38:30.405Z,102109.00
2022-12-01T01:40:57.806Z,102096.03
2022-12-01T01:44:01.952Z,102096.88
2022-12-01T01:46:33.949Z,102101.22
2022-12-01T01:49:02.298Z,102102.06
2022-12-01T01:51:39.777Z,102100.31
2022-12-01T01:54:17.480Z,102100.34
2022-12-01T02:01:15.883Z,102098.59
2022-12-01T02:03:45.492Z,102103.81
2022-12-01T02:06:12.629Z,102101.22
2022-12-01T02:08:39.713Z,102104.69
2022-12-01T02:11:48.439Z,102104.66
2022-12-01T02:14:54.526Z,102115.06
2022-12-01T02:17:41.392Z,102109.81
2022-12-01T02:20:11.631Z,102114.13
2022-12-01T02:23:12.910Z,102108.94
2022-12-01T02:26:02.226Z,102101.16
2022-12-01T02:28:35.118Z,102108.94
2022-12-01T02:31:17.290Z,102108.94
2022-12-01T02:33:53.465Z,102115.03
2022-12-01T02:36:41.023Z,102110.66
2022-12-01T02:39:17.532Z,102117.63
2022-12-01T02:41:53.261Z,102108.13
2022-12-01T02:44:36.310Z,102107.25
2022-12-01T02:47:11.841Z,102115.03
2022-12-01T02:49:49.617Z,102108.06
2022-12-01T02:52:19.017Z,102096.88
2022-12-01T02:54:48.499Z,102099.47
2022-12-01T02:57:17.117Z,102103.75
2022-12-01T02:59:50.180Z,102097.75
2022-12-01T03:02:42.557Z,102107.25
2022-12-01T03:05:15.433Z,102105.53
2022-12-01T03:07:58.665Z,102102.06
2022-12-01T03:10:41.593Z,102100.31
2022-12-01T03:13:27.330Z,102099.47
2022-12-01T03:16:17.803Z,102094.28
2022-12-01T03:18:47.541Z,102097.75
2022-12-01T03:21:23.702Z,102096.03
2022-12-01T03:24:01.101Z,102098.63
2022-12-01T03:26:32.841Z,102091.69
2022-12-01T03:29:06.546Z,102094.28
2022-12-01T03:31:39.651Z,102085.63
2022-12-01T03:34:15.501Z,102085.63
2022-12-01T03:36:47.804Z,102092.53
2022-12-01T03:39:21.459Z,102096.00
2022-12-01T03:42:04.132Z,102093.41
2022-12-01T03:44:53.596Z,102097.75
2022-12-01T03:47:23.820Z,102097.72
2022-12-01T03:49:53.615Z,102083.91
2022-12-01T03:52:40.519Z,102099.47
2022-12-01T03:55:17.487Z,102093.41
2022-12-01T03:57:50.301Z,102098.59
2022-12-01T04:00:18.939Z,102089.97
2022-12-01T04:02:46.110Z,102086.47
2022-12-01T04:05:13.134Z,102086.50
2022-12-01T04:07:40.720Z,102087.34
2022-12-01T04:10:08.441Z,102096.00
2022-12-01T04:12:35.585Z,102096.00
2022-12-01T04:15:12.527Z,102096.00
2022-12-01T04:17:43.365Z,102096.00
2022-12-01T04:20:16.226Z,102093.44
2022-12-01T04:22:43.647Z,102106.38
2022-12-01T04:25:11.665Z,102098.56
2022-12-01T04:27:39.989Z,102095.94
2022-12-01T04:30:08.317Z,102102.00
2022-12-01T04:32:40.057Z,102102.00
2022-12-01T04:35:09.130Z,102099.44
2022-12-01T04:37:36.179Z,102102.03
2022-12-01T04:40:04.086Z,102092.50
2022-12-01T04:42:31.379Z,102099.44
2022-12-01T04:44:58.415Z,102092.50
2022-12-01T04:47:25.465Z,102101.13
2022-12-01T04:49:52.613Z,102105.47
2022-12-01T04:52:19.512Z,102109.81
2022-12-01T04:54:46.546Z,102104.63
2022-12-01T04:57:26.192Z,102096.81
2022-12-01T04:59:53.477Z,102096.00
2022-12-01T05:02:20.558Z,102100.28
2022-12-01T05:04:48.446Z,102090.75
2022-12-01T05:07:15.554Z,102094.22
2022-12-01T05:09:42.645Z,102097.66
2022-12-01T05:12:09.699Z,102102.84
2022-12-01T05:14:37.022Z,102102.84
2022-12-01T05:17:06.849Z,102114.13
2022-12-01T05:19:54.251Z,102115.84
2022-12-01T05:22:36.709Z,102113.22
2022-12-01T05:25:08.539Z,102108.03
2022-12-01T05:27:38.075Z,102103.69
2022-12-01T05:30:06.032Z,102114.97
2022-12-01T05:32:32.932Z,102108.03
2022-12-01T05:34:59.855Z,102116.69
2022-12-01T05:37:26.838Z,102114.06
2022-12-01T05:39:53.862Z,102108.88
2022-12-01T05:42:21.004Z,102096.78
2022-12-01T05:44:48.000Z,102112.38
2022-12-01T05:47:15.098Z,102108.00
2022-12-01T05:49:42.100Z,102114.94
2022-12-01T05:52:09.102Z,102118.38
2022-12-01T05:54:36.098Z,102114.06
2022-12-01T05:57:03.114Z,102125.28
2022-12-01T05:59:30.067Z,102124.41
2022-12-01T06:01:59.514Z,102130.38
2022-12-01T06:04:26.523Z,102130.34
2022-12-01T06:06:53.534Z,102128.56
2022-12-01T06:09:20.543Z,102132.84
2022-12-01T06:11:52.264Z,102136.31
2022-12-01T06:14:19.675Z,102139.75
2022-12-01T06:16:46.610Z,102141.44
2022-12-01T06:19:13.741Z,102140.38
2022-12-01T06:21:40.775Z,102140.28
2022-12-01T06:24:08.032Z,102147.03
2022-12-01T06:26:34.935Z,102146.09
2022-12-01T06:29:01.884Z,102152.19
2022-12-01T06:31:31.516Z,102157.38
2022-12-01T06:33:58.469Z,102153.97
2022-12-01T06:36:25.434Z,102142.63
2022-12-01T06:38:52.441Z,102154.63
2022-12-01T06:41:24.509Z,102148.50
2022-12-01T06:43:51.503Z,102154.50
2022-12-01T06:46:18.688Z,102137.94
2022-12-01T06:48:48.448Z,102143.78
2022-12-01T06:51:15.315Z,102145.44
2022-12-01T06:53:42.389Z,102146.34
2022-12-01T06:56:09.464Z,102139.28
2022-12-01T06:58:36.692Z,102141.59
2022-12-01T07:01:11.041Z,102146.56
2022-12-01T07:03:39.024Z,102136.13
2022-12-01T07:06:06.551Z,102141.13
2022-12-01T07:08:33.857Z,102140.03
2022-12-01T07:11:05.576Z,102137.22
2022-12-01T07:13:33.940Z,102136.03
2022-12-01T07:16:04.962Z,102132.22
2022-12-01T07:18:33.233Z,102136.50
2022-12-01T07:21:22.148Z,102124.38
2022-12-01T07:23:49.182Z,102125.94
2022-12-01T07:26:18.217Z,102142.16
2022-12-01T07:28:45.727Z,102139.19
2022-12-01T07:31:15.899Z,102130.75
2022-12-01T07:33:43.368Z,102133.53
2022-12-01T07:36:14.182Z,102144.06
2022-12-01T07:38:42.046Z,102137.78
2022-12-01T07:41:21.975Z,102140.28
2022-12-01T07:43:50.913Z,102134.91
2022-12-01T07:46:23.695Z,102136.78
2022-12-01T07:48:52.893Z,102144.56
2022-12-01T07:51:20.820Z,102139.06
2022-12-01T07:53:51.327Z,102137.06
2022-12-01T07:56:19.207Z,102128.25
2022-12-01T07:58:46.124Z,102141.53
2022-12-01T08:01:19.518Z,102134.94
2022-12-01T08:03:51.571Z,102132.88
2022-12-01T08:06:20.749Z,102136.34
2022-12-01T08:08:47.927Z,102140.59
2022-12-01T08:11:23.743Z,102139.03
2022-12-01T08:13:52.340Z,102136.97
2022-12-01T08:16:21.381Z,102139.19
2022-12-01T08:18:49.065Z,102126.50
2022-12-01T08:21:19.486Z,102134.16
2022-12-01T08:23:47.268Z,102135.03
2022-12-01T08:26:16.934Z,102128.31
2022-12-01T08:28:44.844Z,102126.41
2022-12-01T08:31:19.716Z,102127.13
2022-12-01T08:33:47.968Z,102137.41
2022-12-01T08:36:18.576Z,102130.84
2022-12-01T08:38:50.508Z,102130.50
2022-12-01T08:41:18.211Z,102125.19
2022-12-01T08:44:01.651Z,102134.03
2022-12-01T08:46:33.479Z,102131.06
2022-12-01T08:49:01.701Z,102123.84
2022-12-01T08:51:31.383Z,102124.94
2022-12-01T08:53:59.912Z,102133.41
2022-12-01T08:56:36.344Z,102124.03
2022-12-01T08:59:04.696Z,102136.56
2022-12-01T09:01:33.211Z,102128.81
2022-12-01T09:04:11.215Z,102124.09
2022-12-01T09:06:46.585Z,102126.41
2022-12-01T09:09:18.937Z,102116.94
2022-12-01T09:11:47.076Z,102107.66
2022-12-01T09:14:16.444Z,102114.78
2022-12-01T09:16:47.190Z,102108.88
2022-12-01T09:19:24.267Z,102104.28
2022-12-01T09:21:52.005Z,102108.91
2022-12-01T09:24:19.006Z,102116.25
2022-12-01T09:26:48.400Z,102115.69
2022-12-01T09:29:16.925Z,102113.41
2022-12-01T09:31:44.481Z,102105.97
2022-12-01T09:34:19.104Z,102106.88
2022-12-01T09:36:49.682Z,102099.91
2022-12-01T09:39:21.716Z,102110.69
2022-12-01T09:42:09.283Z,102102.97
2022-12-01T09:44:43.035Z,102104.69
2022-12-01T09:47:26.486Z,102102.34
2022-12-01T09:50:14.298Z,102107.88
2022-12-01T09:52:47.822Z,102111.66
2022-12-01T09:55:19.098Z,102112.78
2022-12-01T09:57:52.570Z,102106.75
2022-12-01T10:00:23.152Z,102109.09
2022-12-01T10:03:06.101Z,102114.34
2022-12-01T10:06:25.250Z,102114.34
2022-12-01T10:09:16.329Z,102118.72
2022-12-01T10:11:47.050Z,102121.94
2022-12-01T10:14:20.100Z,102114.00
2022-12-01T10:17:28.648Z,102113.31
2022-12-01T10:20:14.299Z,102103.88
2022-12-01T10:23:02.899Z,102102.25
2022-12-01T10:25:51.296Z,102104.00
2022-12-01T10:28:37.730Z,102101.44
2022-12-01T10:31:23.572Z,102100.41
2022-12-01T10:33:59.807Z,102093.88
2022-12-01T10:36:30.971Z,102101.34
2022-12-01T10:39:01.312Z,102096.13
2022-12-01T10:41:32.815Z,102089.34
2022-12-01T10:44:03.339Z,102078.56
2022-12-01T10:46:42.225Z,102080.16
2022-12-01T10:49:12.469Z,102072.59
2022-12-01T10:51:54.276Z,102080.53
2022-12-01T10:54:23.778Z,102093.34
2022-12-01T10:57:10.193Z,102087.34
2022-12-01T11:00:25.525Z,102090.34
2022-12-01T11:03:56.233Z,102093.47
2022-12-01T11:06:29.547Z,102089.31
2022-12-01T11:09:01.927Z,102085.97
2022-12-01T11:11:37.240Z,102092.66
2022-12-01T11:14:46.807Z,102084.47
2022-12-01T11:17:29.543Z,102081.81
2022-12-01T11:19:57.148Z,102081.84
2022-12-01T11:22:31.878Z,102077.84
2022-12-01T11:25:02.020Z,102075.59
2022-12-01T11:27:51.240Z,102069.66
2022-12-01T11:30:25.244Z,102087.00
2022-12-01T11:33:04.432Z,102082.41
2022-12-01T11:35:35.233Z,102091.81
2022-12-01T11:38:28.867Z,102093.97
2022-12-01T11:40:58.626Z,102079.94
2022-12-01T11:43:32.941Z,102080.44
2022-12-01T11:46:10.521Z,102094.63
2022-12-01T11:48:38.231Z,102097.44
2022-12-01T11:51:20.071Z,102097.31
2022-12-01T11:53:49.861Z,102088.59
2022-12-01T11:56:22.698Z,102082.59
2022-12-01T11:58:56.855Z,102092.34
2022-12-01T12:01:46.112Z,102089.00
2022-12-01T12:04:21.418Z,102089.94
2022-12-01T12:07:13.621Z,102079.72
2022-12-01T12:09:56.276Z,102078.16
2022-12-01T12:12:50.708Z,102080.91
2022-12-01T12:16:05.115Z,102085.06
2022-12-01T12:19:01.787Z,102093.81
2022-12-01T12:21:44.193Z,102094.69
2022-12-01T12:24:38.184Z,102104.91
2022-12-01T12:27:08.092Z,102096.53
2022-12-01T12:29:53.253Z,102100.97
2022-12-01T12:32:23.056Z,102097.66
2022-12-01T12:35:24.528Z,102094.28
2022-12-01T12:37:57.377Z,102094.34
2022-12-01T12:40:33.401Z,102091.00
2022-12-01T12:43:23.110Z,102092.06
2022-12-01T12:46:11.100Z,102093.78
2022-12-01T12:49:18.659Z,102097.38
2022-12-01T12:52:08.982Z,102100.13
2022-12-01T12:54:46.497Z,102104.53
2022-12-01T12:57:36.932Z,102090.53
2022-12-01T13:00:17.106Z,102088.78
2022-12-01T13:02:50.782Z,102093.19
2022-12-01T13:05:34.114Z,102093.19
2022-12-01T13:08:04.096Z,102095.84
2022-12-01T13:10:44.939Z,102091.75
2022-12-01T13:13:15.537Z,102089.28
2022-12-01T13:15:44.572Z,102100.59
2022-12-01T13:18:29.711Z,102092.00
2022-12-01T13:20:58.741Z,102096.50
2022-12-01T13:23:27.155Z,102093.25
2022-12-01T13:25:57.623Z,102083.81
2022-12-01T13:28:29.468Z,102083.81
2022-12-01T13:31:04.802Z,102092.31
2022-12-01T13:33:33.679Z,102090.50
2022-12-01T13:36:38.176Z,102088.75
2022-12-01T13:39:01.851Z,102087.84
2022-12-01T13:41:40.357Z,102090.38
2022-12-01T13:44:18.549Z,102081.59
2022-12-01T13:46:47.883Z,102092.81
2022-12-01T13:49:40.804Z,102069.50
2022-12-01T13:52:23.385Z,102081.72
2022-12-01T13:55:14.434Z,102078.16
2022-12-01T13:58:09.854Z,102071.59
2022-12-01T14:00:37.378Z,102070.66
2022-12-01T14:03:19.842Z,102085.34
2022-12-01T14:05:53.681Z,102094.00
2022-12-01T14:08:29.553Z,102074.84
2022-12-01T14:11:26.893Z,102080.88
2022-12-01T14:14:26.053Z,102080.84
2022-12-01T14:16:58.780Z,102069.50
2022-12-01T14:19:47.161Z,102065.94
2022-12-01T14:23:00.088Z,102077.25
2022-12-01T14:25:30.729Z,102062.63
2022-12-01T14:28:16.037Z,102050.75
2022-12-01T14:30:46.121Z,102067.06
2022-12-01T14:34:15.740Z,102066.28
2022-12-01T14:37:03.407Z,102045.50
2022-12-01T14:39:45.983Z,102066.00
2022-12-01T14:42:51.930Z,102066.72
2022-12-01T14:45:27.715Z,102052.78
2022-12-01T14:48:26.059Z,102068.25
2022-12-01T14:51:28.537Z,102033.75
2022-12-01T14:54:11.457Z,102059.69
2022-12-01T14:56:43.898Z,102027.94
2022-12-01T14:59:27.658Z,102033.06
2022-12-01T15:02:17.478Z,102040.16
2022-12-01T15:05:12.227Z,102067.09
2022-12-01T15:07:46.593Z,102042.13
2022-12-01T15:10:27.857Z,102064.56
2022-12-01T15:12:58.268Z,102066.38
2022-12-01T15:15:53.632Z,102059.38
2022-12-01T15:18:54.240Z,102061.22
2022-12-01T15:21:26.025Z,102063.97
2022-12-01T15:24:00.033Z,102063.28
2022-12-01T15:30:59.714Z,102058.94
2022-12-01T15:33:37.217Z,102060.63
2022-12-01T15:36:13.072Z,102047.59
2022-12-01T15:38:53.419Z,102032.84
2022-12-01T15:41:30.958Z,102057.97
2022-12-01T15:44:05.568Z,102071.97
2022-12-01T15:46:34.927Z,102048.63
2022-12-01T15:49:16.235Z,102032.09
2022-12-01T15:51:43.675Z,102027.00
2022-12-01T15:54:28.762Z,102045.25
2022-12-01T15:56:59.168Z,102060.06
2022-12-01T15:59:37.539Z,102059.38
2022-12-01T16:02:12.751Z,102044.00
2022-12-01T16:04:40.559Z,102057.84
2022-12-01T16:07:11.297Z,102070.94
2022-12-01T16:09:50.806Z,102065.75
2022-12-01T16:12:27.722Z,102039.91
2022-12-01T16:15:00.810Z,102058.03
2022-12-01T16:17:40.752Z,102039.00
2022-12-01T16:20:18.710Z,102058.09
2022-12-01T16:22:47.866Z,102058.19
2022-12-01T16:25:27.748Z,102050.44
2022-12-01T16:27:56.843Z,102056.59
2022-12-01T16:30:29.944Z,102060.06
2022-12-01T16:33:17.870Z,102064.38
2022-12-01T16:35:45.549Z,102063.50
2022-12-01T16:38:22.906Z,102059.94
2022-12-01T16:40:55.904Z,102064.38
2022-12-01T16:43:26.752Z,102045.34
2022-12-01T16:46:03.401Z,102059.19
2022-12-01T16:48:31.820Z,102049.66
2022-12-01T16:51:03.927Z,102049.72
2022-12-01T16:53:34.286Z,102035.97
2022-12-01T16:56:03.580Z,102041.13
2022-12-01T16:58:31.305Z,102029.84
2022-12-01T17:01:01.320Z,102037.59
2022-12-01T17:03:36.066Z,102036.66
2022-12-01T17:06:49.375Z,102028.88
2022-12-01T17:09:16.510Z,102044.38
2022-12-01T17:11:43.939Z,102046.94
2022-12-01T17:14:23.711Z,102012.41
2022-12-01T17:17:12.072Z,102022.78
2022-12-01T17:19:47.571Z,102046.94
2022-12-01T17:22:38.429Z,102039.22
2022-12-01T17:25:08.967Z,102024.50
2022-12-01T17:27:37.892Z,102029.66
2022-12-01T17:30:45.219Z,102017.78
2022-12-01T17:38:07.779Z,102039.38
2022-12-01T17:41:25.844Z,102036.88
2022-12-01T17:44:05.831Z,102038.63
2022-12-01T17:46:33.211Z,102025.63
2022-12-01T17:49:01.530Z,102036.00
2022-12-01T17:51:47.519Z,102029.09
2022-12-01T17:54:15.121Z,102033.50
2022-12-01T17:56:43.541Z,102042.09
2022-12-01T17:59:18.990Z,102015.28
2022-12-01T18:01:54.361Z,102017.03
2022-12-01T18:04:26.356Z,102025.66
2022-12-01T18:06:54.562Z,102034.34
2022-12-01T18:09:22.004Z,102030.03
2022-12-01T18:11:49.630Z,102044.72
2022-12-01T18:14:18.005Z,102049.03
2022-12-01T18:21:19.572Z,102051.66
2022-12-01T18:24:02.932Z,102046.44
2022-12-01T18:26:33.042Z,102046.41
2022-12-01T18:29:08.887Z,102039.41
2022-12-01T18:31:40.313Z,102041.13
2022-12-01T18:34:09.144Z,102048.91
2022-12-01T18:36:39.103Z,102048.91
2022-12-01T18:39:08.289Z,102041.09
2022-12-01T18:46:23.062Z,102051.41
2022-12-01T18:50:18.256Z,102047.91
2022-12-01T18:52:54.269Z,102046.31
2022-12-01T18:55:21.390Z,102047.13
2022-12-01T18:57:48.604Z,102047.97
2022-12-01T19:00:51.217Z,102053.16
2022-12-01T19:07:48.705Z,102044.50
2022-12-01T19:10:16.174Z,102054.00
2022-12-01T19:12:43.486Z,102059.97
2022-12-01T19:15:17.098Z,102059.16
2022-12-01T19:17:44.571Z,102053.91
2022-12-01T19:20:14.475Z,102060.75
2022-12-01T19:22:41.509Z,102061.63
2022-12-01T19:25:13.775Z,102052.94
2022-12-01T19:27:41.049Z,102055.59
2022-12-01T19:30:09.875Z,102052.97
2022-12-01T19:32:37.330Z,102060.75
2022-12-01T19:35:05.118Z,102046.03
2022-12-01T19:37:32.605Z,102051.22
2022-12-01T19:39:59.741Z,102046.81
2022-12-01T19:42:26.771Z,102040.75
2022-12-01T19:44:53.807Z,102045.06
2022-12-01T19:47:23.957Z,102055.50
2022-12-01T19:49:53.764Z,102050.34
2022-12-01T19:52:23.441Z,102047.75
2022-12-01T19:54:51.356Z,102048.69
2022-12-01T19:57:29.314Z,102042.69
2022-12-01T20:00:07.968Z,102051.38
2022-12-01T20:02:47.919Z,102068.69
2022-12-01T20:05:27.677Z,102061.78
2022-12-01T20:07:58.024Z,102040.19
2022-12-01T20:10:31.560Z,102054.03
2022-12-01T20:12:59.489Z,102064.47
2022-12-01T20:15:26.868Z,102062.72
2022-12-01T20:17:54.253Z,102046.34
2022-12-01T20:20:22.821Z,102077.56
2022-12-01T20:22:49.943Z,102042.19
2022-12-01T20:29:49.572Z,102071.53
2022-12-01T20:32:21.990Z,102067.19
2022-12-01T20:34:52.169Z,102071.53
2022-12-01T20:37:19.643Z,102071.50
2022-12-01T20:39:47.604Z,102084.50
2022-12-01T20:42:15.080Z,102051.63
2022-12-01T20:44:42.202Z,102055.97
2022-12-01T20:47:09.273Z,102077.59
2022-12-01T20:49:36.283Z,102072.41
2022-12-01T20:52:03.674Z,102076.72
2022-12-01T20:54:31.523Z,102059.41
2022-12-01T20:57:28.350Z,102086.19
2022-12-01T20:59:55.416Z,102079.25
2022-12-01T21:02:22.630Z,102081.84
2022-12-01T21:04:49.964Z,102055.03
2022-12-01T21:07:18.101Z,102062.00
2022-12-01T21:09:47.624Z,102069.75
2022-12-01T21:12:36.537Z,102042.06
2022-12-01T21:15:17.922Z,102068.84
2022-12-01T21:17:55.484Z,102057.63
2022-12-01T21:20:36.081Z,102067.94
2022-12-01T21:23:11.791Z,102054.06
2022-12-01T21:25:48.273Z,102062.63
2022-12-01T21:28:24.261Z,102049.66
2022-12-01T21:31:14.817Z,102046.13
2022-12-01T21:33:43.221Z,102044.38
2022-12-01T21:36:22.407Z,102048.84
2022-12-01T21:38:57.532Z,102023.69
2022-12-01T21:41:27.504Z,102045.38
2022-12-01T21:44:09.232Z,102047.97
2022-12-01T21:46:39.004Z,102056.66
2022-12-01T21:49:12.944Z,102060.91
2022-12-01T21:51:39.923Z,102054.88
2022-12-01T21:54:14.247Z,102063.66
2022-12-01T21:56:44.256Z,102057.59
2022-12-01T21:59:22.473Z,102055.00
2022-12-01T22:01:54.139Z,102051.53
2022-12-01T22:04:25.809Z,102067.16
2022-12-01T22:11:18.897Z,102066.34
2022-12-01T22:14:05.125Z,102056.81
2022-12-01T22:16:36.543Z,102066.34
2022-12-01T22:19:29.249Z,102040.38
2022-12-01T22:22:12.036Z,102061.13
2022-12-01T22:24:42.414Z,102052.50
2022-12-01T22:27:30.079Z,102049.94
2022-12-01T22:30:06.742Z,102046.47
2022-12-01T22:32:59.552Z,102047.28
2022-12-01T22:35:48.507Z,102043.84
2022-12-01T22:38:33.938Z,102048.13
2022-12-01T22:41:06.904Z,102052.47
2022-12-01T22:44:02.237Z,102049.94
2022-12-01T22:46:32.323Z,102030.06
2022-12-01T22:49:13.972Z,102046.47
2022-12-01T22:51:49.017Z,102040.41
2022-12-01T22:54:15.968Z,102050.75
2022-12-01T23:01:24.894Z,102047.25
2022-12-01T23:04:21.382Z,102042.03
2022-12-01T23:06:56.139Z,102045.47
2022-12-01T23:09:27.574Z,102044.56
2022-12-01T23:12:23.650Z,102050.66
2022-12-01T23:14:53.940Z,102044.69
2022-12-01T23:17:30.286Z,102047.31
2022-12-01T23:20:28.213Z,102044.72
2022-12-01T23:22:57.398Z,102045.63
2022-12-01T23:25:28.181Z,102049.13
2022-12-01T23:27:59.426Z,102049.16
2022-12-01T23:30:26.614Z,102040.53
2022-12-01T23:33:06.743Z,102037.09
2022-12-01T23:36:00.413Z,102046.63
2022-12-01T23:38:48.111Z,102045.81
2022-12-01T23:41:31.162Z,102058.81
2022-12-01T23:44:00.777Z,102059.69
2022-12-01T23:46:28.492Z,102051.88
2022-12-01T23:49:03.738Z,102049.25
2022-12-01T23:52:02.355Z,102047.47
2022-12-01T23:54:34.900Z,102049.16
2022-12-01T23:57:10.642Z,102045.72
2022-12-01T23:59:38.452Z,102046.59
